Time;durP1;ratioP1;P1;durP2;ratioP2;P2;SDS_P1;SDS_P2;PMS_P1;PMS_P2;Temp;Humidity;BMP_temperature;BMP_pressure;BME280_temperature;BME280_humidity;BME280_pressure;Samples;Min_cycle;Max_cycle;Signal;HPM_P1;HPM_P2
2023/09/10 00:01:21;;;;;;;243.53;94.50;;;;;;;;;;5000660;28;20422;-46
2023/09/10 00:03:47;;;;;;;244.93;95.87;;;;;;;;;;5001387;28;20481;-47
2023/09/10 00:06:13;;;;;;;243.03;94.50;;;;;;;;;;5001515;28;20455;-46
2023/09/10 00:08:39;;;;;;;242.07;93.97;;;;;;;;;;5001142;28;20408;-46
2023/09/10 00:11:05;;;;;;;243.77;94.20;;;;;;;;;;5000741;28;20902;-47
2023/09/10 00:13:31;;;;;;;247.03;98.47;;;;;;;;;;4993781;28;20424;-46
2023/09/10 00:15:57;;;;;;;243.37;97.03;;;;;;;;;;5008335;28;20517;-45
2023/09/10 00:18:24;;;;;;;245.97;97.03;;;;;;;;;;5003034;28;20422;-46
2023/09/10 00:20:53;;;;;;;243.73;95.00;;;;;;;;;;5003486;28;20419;-46
2023/09/10 00:23:19;;;;;;;247.90;103.60;;;;;;;;;;5004158;28;20916;-46
2023/09/10 00:25:45;;;;;;;241.33;93.93;;;;;;;;;;5003950;28;20407;-46
2023/09/10 00:28:11;;;;;;;243.13;94.13;;;;;;;;;;5004585;28;20817;-47
2023/09/10 00:30:37;;;;;;;247.27;102.03;;;;;;;;;;5008288;28;20472;-46
2023/09/10 00:33:03;;;;;;;243.90;93.10;;;;;;;;;;5006914;28;20441;-46
2023/09/10 00:35:29;;;;;;;245.50;96.17;;;;;;;;;;5001033;28;20788;-46
2023/09/10 00:37:55;;;;;;;243.40;91.20;;;;;;;;;;5000899;28;20924;-46
2023/09/10 00:40:21;;;;;;;244.43;99.13;;;;;;;;;;5005765;28;20837;-46
2023/09/10 00:42:47;;;;;;;246.70;101.63;;;;;;;;;;5004713;28;20426;-46
2023/09/10 00:45:13;;;;;;;244.33;94.87;;;;;;;;;;4999356;28;20438;-46
2023/09/10 00:47:44;;;;;;;245.13;95.50;;;;;;;;;;4988437;28;20466;-46
2023/09/10 00:50:10;;;;;;;243.87;92.17;;;;;;;;;;5004471;28;20891;-46
2023/09/10 00:52:37;;;;;;;244.70;95.07;;;;;;;;;;4995960;28;20427;-46
2023/09/10 00:55:04;;;;;;;242.47;91.50;;;;;;;;;;4996513;28;20505;-47
2023/09/10 00:57:30;;;;;;;246.27;95.67;;;;;;;;;;5005534;28;20423;-47
2023/09/10 00:59:56;;;;;;;245.77;97.20;;;;;;;;;;5002709;28;20537;-46
2023/09/10 01:02:22;;;;;;;246.77;96.33;;;;;;;;;;5003370;28;20467;-45
2023/09/10 01:04:48;;;;;;;245.53;92.33;;;;;;;;;;4994689;28;20528;-46
2023/09/10 01:07:14;;;;;;;244.97;95.83;;;;;;;;;;5002226;28;20833;-46
2023/09/10 01:09:40;;;;;;;245.07;98.00;;;;;;;;;;5004224;28;20402;-46
2023/09/10 01:12:21;;;;;;;244.60;93.03;;;;;;;;;;5002930;28;20399;-46
2023/09/10 01:14:51;;;;;;;245.47;95.07;;;;;;;;;;4996948;28;20420;-47
2023/09/10 01:17:24;;;;;;;244.03;93.43;;;;;;;;;;5004600;28;20930;-47
2023/09/10 01:19:50;;;;;;;245.97;97.50;;;;;;;;;;5006169;28;20444;-47
2023/09/10 01:22:26;;;;;;;248.87;102.80;;;;;;;;;;5006825;28;20476;-46
2023/09/10 01:24:52;;;;;;;247.37;98.37;;;;;;;;;;5008008;22;21024;-45
2023/09/10 01:27:19;;;;;;;249.13;96.80;;;;;;;;;;4960078;28;20460;-46
2023/09/10 01:29:45;;;;;;;240.90;91.87;;;;;;;;;;4967177;28;20419;-45
2023/09/10 01:32:16;;;;;;;238.93;91.97;;;;;;;;;;4964674;28;20414;-45
2023/09/10 01:34:45;;;;;;;241.77;94.17;;;;;;;;;;4966413;28;20433;-46
2023/09/10 01:37:16;;;;;;;240.30;95.03;;;;;;;;;;4972697;28;20412;-45
2023/09/10 01:39:44;;;;;;;240.23;92.03;;;;;;;;;;4969710;28;20452;-45
2023/09/10 01:42:11;;;;;;;243.17;97.10;;;;;;;;;;4967828;28;20427;-45
2023/09/10 01:44:37;;;;;;;244.77;97.53;;;;;;;;;;4974156;28;20445;-45
2023/09/10 01:47:04;;;;;;;245.97;99.03;;;;;;;;;;4972742;28;20910;-45
2023/09/10 01:49:30;;;;;;;243.13;91.57;;;;;;;;;;4971197;28;20784;-45
2023/09/10 01:51:56;;;;;;;245.93;95.73;;;;;;;;;;4969360;28;20456;-45
2023/09/10 01:54:22;;;;;;;246.10;99.03;;;;;;;;;;4972570;28;20465;-45
2023/09/10 01:56:48;;;;;;;244.13;92.67;;;;;;;;;;4969130;28;20409;-45
2023/09/10 01:59:14;;;;;;;247.67;97.10;;;;;;;;;;4974674;28;20420;-45
2023/09/10 02:01:40;;;;;;;258.27;108.03;;;;;;;;;;4972509;28;20474;-46
2023/09/10 02:04:06;;;;;;;246.40;98.83;;;;;;;;;;4971092;28;20559;-45
2023/09/10 02:06:32;;;;;;;244.17;96.73;;;;;;;;;;4969590;28;20463;-45
2023/09/10 02:08:58;;;;;;;245.20;99.93;;;;;;;;;;4968960;28;20421;-45
2023/09/10 02:11:25;;;;;;;246.07;101.27;;;;;;;;;;4973353;28;20416;-46
2023/09/10 02:13:53;;;;;;;246.70;99.27;;;;;;;;;;4974086;28;20497;-45
2023/09/10 02:16:19;;;;;;;243.97;95.77;;;;;;;;;;4971413;28;20452;-46
2023/09/10 02:18:45;;;;;;;241.00;91.77;;;;;;;;;;4971037;28;20420;-45
2023/09/10 02:21:12;;;;;;;249.30;100.50;;;;;;;;;;4969375;28;20410;-45
2023/09/10 02:23:38;;;;;;;249.07;100.40;;;;;;;;;;4967405;28;20469;-46
2023/09/10 02:26:04;;;;;;;243.53;92.83;;;;;;;;;;4966272;28;20431;-46
2023/09/10 02:28:30;;;;;;;249.30;98.20;;;;;;;;;;4972415;28;20417;-45
2023/09/10 02:30:56;;;;;;;246.00;94.87;;;;;;;;;;4972336;28;20419;-45
2023/09/10 02:33:23;;;;;;;250.03;100.43;;;;;;;;;;4972589;28;20420;-45
2023/09/10 02:35:49;;;;;;;249.07;98.20;;;;;;;;;;4968776;28;20418;-46
2023/09/10 02:38:15;;;;;;;248.57;99.03;;;;;;;;;;4967450;28;20428;-45
2023/09/10 02:40:41;;;;;;;250.90;102.30;;;;;;;;;;4966038;28;20431;-45
2023/09/10 02:43:07;;;;;;;247.60;96.03;;;;;;;;;;4972061;28;20428;-45
2023/09/10 02:45:33;;;;;;;249.00;100.13;;;;;;;;;;4970787;28;20438;-45
2023/09/10 02:47:59;;;;;;;246.00;93.77;;;;;;;;;;4970225;28;20511;-46
2023/09/10 02:50:24;;;;;;;246.60;96.40;;;;;;;;;;4972230;28;20418;-45
2023/09/10 02:52:50;;;;;;;245.43;95.40;;;;;;;;;;4968158;28;20404;-45
2023/09/10 02:55:16;;;;;;;240.73;89.37;;;;;;;;;;4965789;28;20479;-45
2023/09/10 02:57:42;;;;;;;243.23;91.20;;;;;;;;;;4972272;28;20790;-45
2023/09/10 03:00:10;;;;;;;246.67;96.03;;;;;;;;;;4970732;28;20419;-45
2023/09/10 03:02:36;;;;;;;243.00;92.10;;;;;;;;;;4968936;28;20487;-45
2023/09/10 03:05:02;;;;;;;248.10;98.20;;;;;;;;;;4968049;28;20435;-45
2023/09/10 03:07:28;;;;;;;247.53;97.93;;;;;;;;;;4970536;28;20821;-45
2023/09/10 03:09:54;;;;;;;250.07;99.63;;;;;;;;;;4968469;28;20417;-46
2023/09/10 03:12:21;;;;;;;244.37;92.97;;;;;;;;;;4965475;28;20417;-45
2023/09/10 03:14:47;;;;;;;247.93;98.33;;;;;;;;;;4972139;28;20440;-45
2023/09/10 03:17:13;;;;;;;246.97;97.03;;;;;;;;;;4970843;28;20891;-45
2023/09/10 03:19:40;;;;;;;248.43;100.23;;;;;;;;;;4972490;28;20419;-45
2023/09/10 03:22:06;;;;;;;248.67;97.50;;;;;;;;;;4969819;28;20421;-45
2023/09/10 03:24:35;;;;;;;247.73;95.03;;;;;;;;;;4967091;28;20819;-45
2023/09/10 03:27:01;;;;;;;247.70;99.67;;;;;;;;;;4965689;28;20463;-45
2023/09/10 03:29:27;;;;;;;245.50;93.10;;;;;;;;;;4972138;28;20416;-45
2023/09/10 03:31:53;;;;;;;246.10;93.90;;;;;;;;;;4970330;28;20902;-45
2023/09/10 03:34:19;;;;;;;250.97;100.20;;;;;;;;;;4968757;28;20787;-45
2023/09/10 03:36:45;;;;;;;250.67;99.80;;;;;;;;;;4969965;28;20782;-45
2023/09/10 03:39:12;;;;;;;252.00;101.63;;;;;;;;;;4970208;28;20419;-45
2023/09/10 03:41:38;;;;;;;253.07;98.67;;;;;;;;;;4965850;28;20412;-45
2023/09/10 03:44:04;;;;;;;246.83;93.77;;;;;;;;;;4971979;28;20517;-46
2023/09/10 03:46:30;;;;;;;242.30;90.27;;;;;;;;;;4970410;28;20558;-45
2023/09/10 03:48:56;;;;;;;246.17;93.77;;;;;;;;;;4968626;28;20585;-45
2023/09/10 03:51:22;;;;;;;250.93;99.83;;;;;;;;;;4967110;28;20474;-46
2023/09/10 03:53:48;;;;;;;249.37;96.60;;;;;;;;;;4967492;28;20490;-45
2023/09/10 03:56:14;;;;;;;248.13;97.00;;;;;;;;;;4969842;28;20411;-45
2023/09/10 03:58:40;;;;;;;247.03;92.47;;;;;;;;;;4972778;28;20408;-45
2023/09/10 04:01:06;;;;;;;250.53;98.60;;;;;;;;;;4970268;28;20446;-45
2023/09/10 04:03:32;;;;;;;247.50;95.97;;;;;;;;;;4968324;28;20447;-45
2023/09/10 04:05:58;;;;;;;252.63;102.93;;;;;;;;;;4967087;28;20414;-45
2023/09/10 04:08:23;;;;;;;246.00;93.00;;;;;;;;;;4965302;28;20473;-45
2023/09/10 04:10:49;;;;;;;245.90;92.73;;;;;;;;;;4971750;28;20771;-46
2023/09/10 04:13:15;;;;;;;246.83;93.57;;;;;;;;;;4969950;28;20779;-45
2023/09/10 04:15:41;;;;;;;246.90;93.93;;;;;;;;;;4971638;28;20422;-45
2023/09/10 04:18:08;;;;;;;246.03;94.83;;;;;;;;;;4969688;28;20414;-45
2023/09/10 04:20:34;;;;;;;244.03;92.43;;;;;;;;;;4967003;28;20416;-45
2023/09/10 04:23:00;;;;;;;245.07;92.73;;;;;;;;;;4965015;28;20514;-46
2023/09/10 04:25:26;;;;;;;247.23;95.73;;;;;;;;;;4971475;28;20465;-45
2023/09/10 04:27:52;;;;;;;245.97;93.37;;;;;;;;;;4970075;28;20978;-45
2023/09/10 04:30:18;;;;;;;247.93;96.27;;;;;;;;;;4968580;28;20418;-45
2023/09/10 04:32:44;;;;;;;247.83;94.47;;;;;;;;;;4969574;28;20423;-45
2023/09/10 04:35:12;;;;;;;242.87;91.23;;;;;;;;;;4969701;28;20484;-45
2023/09/10 04:37:38;;;;;;;246.50;97.07;;;;;;;;;;4958622;28;20969;-45
2023/09/10 04:40:07;;;;;;;246.63;95.43;;;;;;;;;;4971660;28;20414;-45
2023/09/10 04:42:33;;;;;;;247.70;94.93;;;;;;;;;;4958098;28;20416;-45
2023/09/10 04:44:59;;;;;;;246.73;96.50;;;;;;;;;;4968379;28;20446;-45
2023/09/10 04:47:25;;;;;;;246.83;96.13;;;;;;;;;;4966742;28;20467;-46
2023/09/10 04:49:51;;;;;;;246.03;93.33;;;;;;;;;;4967147;28;20412;-45
2023/09/10 04:52:17;;;;;;;247.57;95.57;;;;;;;;;;4969495;28;20946;-46
2023/09/10 04:54:43;;;;;;;247.77;97.63;;;;;;;;;;4972162;28;21009;-45
2023/09/10 04:57:12;;;;;;;246.70;95.17;;;;;;;;;;4970130;28;20442;-45
2023/09/10 04:59:38;;;;;;;248.27;97.23;;;;;;;;;;4969522;28;20608;-45
2023/09/10 05:02:07;;;;;;;247.57;95.17;;;;;;;;;;4970057;28;20518;-45
2023/09/10 05:04:33;;;;;;;251.93;102.00;;;;;;;;;;4953234;28;20961;-45
2023/09/10 05:06:59;;;;;;;251.37;102.03;;;;;;;;;;4974885;28;20472;-45
2023/09/10 05:09:25;;;;;;;248.77;96.27;;;;;;;;;;4973443;28;20517;-45
2023/09/10 05:11:51;;;;;;;245.37;91.93;;;;;;;;;;4973408;28;20442;-45
2023/09/10 05:14:17;;;;;;;244.53;92.50;;;;;;;;;;4973648;28;20430;-45
2023/09/10 05:16:43;;;;;;;246.13;93.43;;;;;;;;;;4970103;28;20433;-45
2023/09/10 05:19:09;;;;;;;247.07;92.63;;;;;;;;;;4968302;28;20504;-45
2023/09/10 05:21:35;;;;;;;254.80;103.93;;;;;;;;;;4974772;28;20434;-45
2023/09/10 05:24:01;;;;;;;243.93;92.57;;;;;;;;;;4972883;28;20466;-45
2023/09/10 05:26:27;;;;;;;245.60;92.63;;;;;;;;;;4971500;28;20464;-45
2023/09/10 05:28:53;;;;;;;245.87;92.67;;;;;;;;;;4971541;28;20418;-45
2023/09/10 05:31:19;;;;;;;248.97;95.60;;;;;;;;;;4972832;28;20407;-45
2023/09/10 05:33:45;;;;;;;246.47;98.80;;;;;;;;;;4968760;28;20422;-45
2023/09/10 05:36:11;;;;;;;245.17;93.83;;;;;;;;;;4964245;28;20450;-45
2023/09/10 05:38:37;;;;;;;245.03;94.60;;;;;;;;;;4965061;28;20423;-46
2023/09/10 05:41:04;;;;;;;244.60;93.37;;;;;;;;;;4971515;28;20771;-46
2023/09/10 05:43:30;;;;;;;245.67;91.87;;;;;;;;;;4974498;28;20414;-45
2023/09/10 05:45:56;;;;;;;246.20;97.13;;;;;;;;;;4973354;28;20410;-45
2023/09/10 05:48:22;;;;;;;246.57;94.50;;;;;;;;;;4971451;28;20475;-45
2023/09/10 05:50:48;;;;;;;247.47;96.10;;;;;;;;;;4970018;28;20884;-46
2023/09/10 05:53:14;;;;;;;245.17;95.00;;;;;;;;;;4968259;28;20420;-46
2023/09/10 05:55:41;;;;;;;246.77;94.93;;;;;;;;;;4969976;28;20518;-45
2023/09/10 05:58:09;;;;;;;249.97;99.90;;;;;;;;;;4969985;28;20420;-46
2023/09/10 06:00:35;;;;;;;247.57;97.63;;;;;;;;;;4974714;28;20410;-45
2023/09/10 06:03:01;;;;;;;244.07;90.13;;;;;;;;;;4971708;28;20418;-45
2023/09/10 06:05:27;;;;;;;245.90;98.57;;;;;;;;;;4969762;28;20537;-45
2023/09/10 06:07:53;;;;;;;269.33;107.40;;;;;;;;;;4957131;28;20510;-46
2023/09/10 06:10:19;;;;;;;246.47;94.27;;;;;;;;;;4965314;28;20414;-45
2023/09/10 06:12:45;;;;;;;244.37;93.23;;;;;;;;;;4968025;28;20924;-45
2023/09/10 06:15:11;;;;;;;243.80;94.53;;;;;;;;;;4969801;28;20574;-46
2023/09/10 06:17:37;;;;;;;239.27;91.87;;;;;;;;;;4973741;28;20923;-45
2023/09/10 06:20:03;;;;;;;243.57;99.67;;;;;;;;;;4971940;28;20567;-45
2023/09/10 06:22:30;;;;;;;241.83;94.23;;;;;;;;;;4970303;28;20934;-45
2023/09/10 06:24:56;;;;;;;241.73;96.23;;;;;;;;;;4969941;28;20451;-45
2023/09/10 06:27:22;;;;;;;240.27;91.93;;;;;;;;;;4971816;28;20452;-45
2023/09/10 06:29:48;;;;;;;239.67;95.47;;;;;;;;;;4968418;28;20408;-45
2023/09/10 06:32:14;;;;;;;243.17;98.50;;;;;;;;;;4973255;28;20408;-45
2023/09/10 06:34:40;;;;;;;248.40;100.67;;;;;;;;;;4964546;28;20455;-45
2023/09/10 06:37:06;;;;;;;239.03;92.80;;;;;;;;;;4955242;28;20935;-45
2023/09/10 06:39:38;;;;;;;237.80;92.60;;;;;;;;;;4967544;28;20443;-46
2023/09/10 06:42:05;;;;;;;239.97;95.10;;;;;;;;;;4973805;28;20903;-45
2023/09/10 06:44:31;;;;;;;240.23;94.63;;;;;;;;;;4973157;28;20495;-45
2023/09/10 06:46:57;;;;;;;244.07;97.63;;;;;;;;;;4972896;28;20468;-45
2023/09/10 06:49:23;;;;;;;239.83;94.37;;;;;;;;;;4972860;28;20499;-45
2023/09/10 06:51:49;;;;;;;244.10;100.63;;;;;;;;;;4969886;28;20483;-45
2023/09/10 06:54:15;;;;;;;243.47;99.20;;;;;;;;;;4968293;28;20527;-45
2023/09/10 06:56:41;;;;;;;242.33;97.33;;;;;;;;;;4966838;28;20425;-45
2023/09/10 06:59:06;;;;;;;245.47;99.13;;;;;;;;;;4973013;28;20428;-45
2023/09/10 07:01:32;;;;;;;245.47;102.57;;;;;;;;;;4971628;28;20420;-45
2023/09/10 07:03:58;;;;;;;245.17;101.00;;;;;;;;;;4970636;28;20425;-45
2023/09/10 07:06:24;;;;;;;251.63;102.93;;;;;;;;;;4971742;28;20417;-46
2023/09/10 07:08:50;;;;;;;243.43;98.87;;;;;;;;;;4967503;28;20493;-46
2023/09/10 07:11:16;;;;;;;245.43;107.00;;;;;;;;;;4966591;28;20567;-45
2023/09/10 07:13:42;;;;;;;248.83;106.93;;;;;;;;;;4971567;28;20436;-45
2023/09/10 07:16:08;;;;;;;246.17;105.57;;;;;;;;;;4971301;28;20425;-45
2023/09/10 07:18:34;;;;;;;248.83;110.90;;;;;;;;;;4969691;28;20423;-46
2023/09/10 07:21:01;;;;;;;248.50;108.30;;;;;;;;;;4968778;28;20503;-46
2023/09/10 07:23:27;;;;;;;247.83;109.87;;;;;;;;;;4970469;28;20422;-46
2023/09/10 07:25:53;;;;;;;246.93;110.40;;;;;;;;;;5001052;23;20527;-45
2023/09/10 07:28:19;;;;;;;247.40;112.23;;;;;;;;;;5001906;28;20452;-45
2023/09/10 07:30:45;;;;;;;246.87;108.67;;;;;;;;;;5003084;28;20411;-45
2023/09/10 07:33:11;;;;;;;242.37;104.73;;;;;;;;;;5001688;28;20423;-45
2023/09/10 07:35:37;;;;;;;246.63;112.03;;;;;;;;;;4985176;28;20439;-45
2023/09/10 07:38:03;;;;;;;244.20;108.60;;;;;;;;;;4978043;28;20414;-45
2023/09/10 07:40:29;;;;;;;242.90;108.87;;;;;;;;;;4984113;28;20423;-45
2023/09/10 07:42:58;;;;;;;245.77;115.77;;;;;;;;;;4983537;28;20408;-45
2023/09/10 07:45:24;;;;;;;249.87;121.40;;;;;;;;;;4983411;28;20464;-45
2023/09/10 07:47:50;;;;;;;243.30;112.27;;;;;;;;;;4982740;28;20835;-45
2023/09/10 07:50:16;;;;;;;245.23;116.73;;;;;;;;;;4983961;28;20416;-45
2023/09/10 07:52:42;;;;;;;246.17;120.03;;;;;;;;;;4979081;28;20469;-45
2023/09/10 07:55:08;;;;;;;244.23;116.63;;;;;;;;;;4974457;28;20437;-45
2023/09/10 07:57:34;;;;;;;244.60;121.07;;;;;;;;;;4972652;28;20460;-45
2023/09/10 08:00:00;;;;;;;246.30;119.87;;;;;;;;;;4972819;28;20465;-45
2023/09/10 08:02:27;;;;;;;244.70;119.17;;;;;;;;;;4972660;28;20409;-46
2023/09/10 08:04:54;;;;;;;244.80;122.33;;;;;;;;;;4972838;28;20440;-46
2023/09/10 08:07:20;;;;;;;244.57;125.27;;;;;;;;;;4972642;28;21046;-46
2023/09/10 08:09:46;;;;;;;243.97;124.83;;;;;;;;;;4972856;28;20433;-45
2023/09/10 08:12:12;;;;;;;245.30;125.90;;;;;;;;;;4972214;28;20421;-45
2023/09/10 08:14:40;;;;;;;244.27;127.23;;;;;;;;;;4972568;28;20444;-46
2023/09/10 08:19:50;;;;;;;243.53;132.93;;;;;;;;;;4981467;28;20702;-46
2023/09/10 08:22:17;;;;;;;247.50;136.83;;;;;;;;;;4989735;28;20486;-46
2023/09/10 08:24:43;;;;;;;242.00;131.53;;;;;;;;;;4982276;28;20440;-46
2023/09/10 08:27:12;;;;;;;249.97;132.37;;;;;;;;;;4991833;28;20513;-46
2023/09/10 08:29:38;;;;;;;246.07;133.70;;;;;;;;;;4999997;28;20816;-46
2023/09/10 08:32:04;;;;;;;244.10;133.27;;;;;;;;;;4990685;28;20422;-47
2023/09/10 08:34:30;;;;;;;240.77;133.30;;;;;;;;;;4998854;28;20907;-47
2023/09/10 08:36:56;;;;;;;245.87;141.23;;;;;;;;;;5003917;28;20423;-46
2023/09/10 08:39:22;;;;;;;244.53;138.30;;;;;;;;;;4995575;28;20954;-46
2023/09/10 08:41:52;;;;;;;243.60;138.17;;;;;;;;;;4995595;28;20404;-47
2023/09/10 08:44:20;;;;;;;244.17;139.17;;;;;;;;;;4995613;28;20408;-46
2023/09/10 08:46:47;;;;;;;242.20;134.43;;;;;;;;;;4995349;28;20452;-46
2023/09/10 08:49:15;;;;;;;243.93;143.97;;;;;;;;;;4994934;28;20471;-46
2023/09/10 08:51:41;;;;;;;239.67;140.33;;;;;;;;;;5008305;28;20418;-46
2023/09/10 08:54:09;;;;;;;244.03;143.63;;;;;;;;;;5002638;28;20423;-47
2023/09/10 08:56:35;;;;;;;246.50;146.80;;;;;;;;;;5000756;28;20415;-46
2023/09/10 08:59:03;;;;;;;247.50;150.23;;;;;;;;;;5002965;28;20438;-47
2023/09/10 09:01:29;;;;;;;247.13;152.63;;;;;;;;;;5003167;28;20788;-46
2023/09/10 09:03:55;;;;;;;245.67;155.00;;;;;;;;;;5003713;28;20767;-46
2023/09/10 09:06:22;;;;;;;242.77;147.87;;;;;;;;;;5005391;28;20891;-46
2023/09/10 09:08:48;;;;;;;250.23;158.10;;;;;;;;;;5002468;28;20431;-47
2023/09/10 09:11:15;;;;;;;248.13;149.50;;;;;;;;;;5000568;28;20407;-46
2023/09/10 09:13:45;;;;;;;246.57;152.43;;;;;;;;;;4997712;28;20413;-46
2023/09/10 09:16:11;;;;;;;246.87;156.67;;;;;;;;;;5006219;28;20407;-46
2023/09/10 09:18:39;;;;;;;244.47;149.70;;;;;;;;;;5002782;28;20440;-47
2023/09/10 09:21:12;;;;;;;244.47;150.43;;;;;;;;;;5005826;28;20777;-46
2023/09/10 09:23:44;;;;;;;243.77;150.33;;;;;;;;;;5002976;28;20915;-47
2023/09/10 09:26:10;;;;;;;243.07;150.37;;;;;;;;;;5003651;28;20408;-46
2023/09/10 09:28:36;;;;;;;244.00;153.50;;;;;;;;;;5002392;28;20475;-46
2023/09/10 09:31:02;;;;;;;247.73;154.23;;;;;;;;;;5002627;28;20408;-46
2023/09/10 09:33:28;;;;;;;247.60;154.87;;;;;;;;;;5006468;28;20922;-47
2023/09/10 09:35:54;;;;;;;251.33;158.47;;;;;;;;;;5001337;28;20400;-46
2023/09/10 09:38:20;;;;;;;245.03;153.97;;;;;;;;;;5001725;28;20939;-46
2023/09/10 09:40:47;;;;;;;249.93;159.10;;;;;;;;;;5002730;28;20519;-46
2023/09/10 09:43:13;;;;;;;248.17;156.30;;;;;;;;;;5002641;28;20408;-47
2023/09/10 09:45:39;;;;;;;245.90;154.07;;;;;;;;;;5002147;28;20482;-46
2023/09/10 09:48:06;;;;;;;243.90;147.90;;;;;;;;;;5006924;28;20474;-46
2023/09/10 09:50:32;;;;;;;245.40;150.23;;;;;;;;;;5001604;28;20411;-46
2023/09/10 09:52:58;;;;;;;244.40;150.13;;;;;;;;;;4999429;28;20953;-46
2023/09/10 09:55:24;;;;;;;244.97;152.33;;;;;;;;;;4999596;28;20412;-46
2023/09/10 09:57:50;;;;;;;243.50;152.73;;;;;;;;;;5003536;28;20923;-46
2023/09/10 10:00:17;;;;;;;247.10;155.13;;;;;;;;;;5005345;28;20407;-46
2023/09/10 10:02:43;;;;;;;245.83;152.13;;;;;;;;;;5002921;28;20823;-46
2023/09/10 10:05:09;;;;;;;244.47;152.83;;;;;;;;;;5004705;28;20408;-46
2023/09/10 10:07:40;;;;;;;244.10;151.47;;;;;;;;;;5003302;28;20473;-46
2023/09/10 10:10:07;;;;;;;244.07;155.17;;;;;;;;;;4990765;28;20502;-46
2023/09/10 10:12:33;;;;;;;244.47;158.37;;;;;;;;;;5005368;28;20465;-47
2023/09/10 10:14:59;;;;;;;243.50;161.60;;;;;;;;;;5002091;28;20771;-46
2023/09/10 10:17:26;;;;;;;250.50;166.90;;;;;;;;;;5002052;28;20440;-46
2023/09/10 10:19:52;;;;;;;245.27;162.50;;;;;;;;;;5003685;28;20495;-46
2023/09/10 10:22:18;;;;;;;243.13;158.60;;;;;;;;;;4995955;28;20970;-46
2023/09/10 10:24:44;;;;;;;244.60;160.70;;;;;;;;;;5001997;28;20968;-46
2023/09/10 10:27:11;;;;;;;251.67;168.83;;;;;;;;;;5001221;28;20542;-46
2023/09/10 10:29:38;;;;;;;244.47;162.47;;;;;;;;;;5001560;28;20438;-46
2023/09/10 10:32:24;;;;;;;243.57;159.93;;;;;;;;;;4992795;28;20414;-46
2023/09/10 10:35:00;;;;;;;241.67;159.73;;;;;;;;;;4998793;28;20502;-46
2023/09/10 10:37:33;;;;;;;246.73;164.43;;;;;;;;;;4998233;28;20438;-47
2023/09/10 10:40:04;;;;;;;241.10;158.17;;;;;;;;;;4999301;28;20431;-46
2023/09/10 10:42:36;;;;;;;240.63;154.83;;;;;;;;;;4993239;28;20412;-46
2023/09/10 10:45:05;;;;;;;243.63;160.80;;;;;;;;;;4993917;28;20419;-46
2023/09/10 10:47:34;;;;;;;242.23;162.97;;;;;;;;;;5000965;28;20473;-46
2023/09/10 10:50:00;;;;;;;241.83;159.90;;;;;;;;;;5003868;28;20415;-46
2023/09/10 10:52:30;;;;;;;244.77;159.73;;;;;;;;;;5001288;28;20404;-46
2023/09/10 10:54:56;;;;;;;240.50;157.67;;;;;;;;;;5002254;28;20417;-46
2023/09/10 10:57:23;;;;;;;242.23;158.00;;;;;;;;;;5000104;28;20490;-46
2023/09/10 10:59:50;;;;;;;241.53;159.57;;;;;;;;;;5007168;28;20451;-46
2023/09/10 11:02:24;;;;;;;240.30;156.67;;;;;;;;;;4998126;28;20916;-46
2023/09/10 11:04:57;;;;;;;241.90;158.27;;;;;;;;;;4998972;28;20453;-47
2023/09/10 11:07:23;;;;;;;240.27;155.43;;;;;;;;;;4999142;28;20558;-46
2023/09/10 11:09:50;;;;;;;243.73;159.20;;;;;;;;;;4996605;28;20423;-46
2023/09/10 11:12:16;;;;;;;243.10;159.07;;;;;;;;;;4992985;28;20469;-46
2023/09/10 11:15:14;;;;;;;243.07;159.60;;;;;;;;;;4992739;28;20419;-47
2023/09/10 11:17:40;;;;;;;243.50;162.87;;;;;;;;;;4959713;28;20435;-46
2023/09/10 11:20:06;;;;;;;245.50;170.23;;;;;;;;;;4992577;28;20412;-47
2023/09/10 11:23:04;;;;;;;244.77;168.80;;;;;;;;;;4992701;28;20920;-47
2023/09/10 11:25:31;;;;;;;243.87;166.90;;;;;;;;;;4992363;28;20523;-47
2023/09/10 11:27:57;;;;;;;246.13;170.33;;;;;;;;;;4992169;28;20471;-47
2023/09/10 11:30:23;;;;;;;244.50;171.23;;;;;;;;;;4992582;28;20786;-47
2023/09/10 11:32:50;;;;;;;243.63;170.20;;;;;;;;;;4992546;28;20901;-46
2023/09/10 11:35:20;;;;;;;244.07;169.70;;;;;;;;;;4992312;28;20482;-46
2023/09/10 11:37:50;;;;;;;247.37;173.30;;;;;;;;;;4992126;28;20428;-46
2023/09/10 11:40:17;;;;;;;243.50;170.33;;;;;;;;;;4991330;28;20423;-46
2023/09/10 11:42:44;;;;;;;242.37;168.63;;;;;;;;;;4992367;28;20498;-46
2023/09/10 11:45:10;;;;;;;243.13;164.50;;;;;;;;;;4992287;28;20416;-47
2023/09/10 11:47:40;;;;;;;245.60;168.57;;;;;;;;;;4992083;28;20479;-46
2023/09/10 11:50:06;;;;;;;245.03;165.37;;;;;;;;;;4992299;28;20416;-46
2023/09/10 11:52:33;;;;;;;245.97;161.80;;;;;;;;;;4992199;28;20737;-46
2023/09/10 11:54:59;;;;;;;244.37;160.93;;;;;;;;;;4992126;28;20508;-46
2023/09/10 11:57:25;;;;;;;246.43;164.60;;;;;;;;;;4991840;28;20878;-47
2023/09/10 11:59:51;;;;;;;246.97;163.00;;;;;;;;;;4993857;28;20414;-46
2023/09/10 12:02:21;;;;;;;243.70;163.23;;;;;;;;;;5001538;28;20416;-46
2023/09/10 12:04:47;;;;;;;244.37;161.63;;;;;;;;;;5001888;28;20425;-47
2023/09/10 12:07:13;;;;;;;252.43;173.20;;;;;;;;;;4996416;28;21015;-47
2023/09/10 12:09:39;;;;;;;246.97;167.37;;;;;;;;;;5006037;28;20454;-47
2023/09/10 12:12:08;;;;;;;245.87;165.67;;;;;;;;;;5004755;28;20469;-47
2023/09/10 12:14:35;;;;;;;244.73;165.50;;;;;;;;;;5003160;28;20498;-47
2023/09/10 12:17:01;;;;;;;246.83;169.33;;;;;;;;;;5005686;28;20461;-46
2023/09/10 12:19:27;;;;;;;244.20;167.03;;;;;;;;;;5019203;28;20974;-47
2023/09/10 12:21:53;;;;;;;246.37;172.83;;;;;;;;;;5003934;28;20439;-46
2023/09/10 12:24:19;;;;;;;245.70;171.73;;;;;;;;;;5004148;28;20427;-46
2023/09/10 12:26:45;;;;;;;243.97;170.50;;;;;;;;;;5008991;28;20450;-47
2023/09/10 12:29:14;;;;;;;245.30;170.63;;;;;;;;;;5003555;28;20434;-46
2023/09/10 12:31:41;;;;;;;243.13;165.70;;;;;;;;;;4997834;28;20839;-46
2023/09/10 12:34:09;;;;;;;244.73;165.93;;;;;;;;;;4995666;28;20419;-46
2023/09/10 12:36:36;;;;;;;250.00;181.73;;;;;;;;;;4995631;28;20406;-46
2023/09/10 12:39:02;;;;;;;253.00;187.53;;;;;;;;;;4995416;28;20426;-46
2023/09/10 12:41:28;;;;;;;243.13;168.17;;;;;;;;;;5003566;28;20416;-46
2023/09/10 12:43:54;;;;;;;241.27;163.87;;;;;;;;;;5007098;28;20421;-46
2023/09/10 12:46:20;;;;;;;241.90;167.23;;;;;;;;;;5003191;28;20411;-46
2023/09/10 12:48:47;;;;;;;239.23;164.70;;;;;;;;;;4998623;28;20806;-47
2023/09/10 12:51:13;;;;;;;238.27;157.07;;;;;;;;;;5006793;28;20442;-47
2023/09/10 12:53:39;;;;;;;239.83;163.93;;;;;;;;;;5003873;28;20411;-47
2023/09/10 12:56:06;;;;;;;240.50;165.70;;;;;;;;;;5006618;28;20963;-46
2023/09/10 12:58:32;;;;;;;239.17;162.23;;;;;;;;;;4999777;28;20497;-47
2023/09/10 13:00:59;;;;;;;238.70;163.70;;;;;;;;;;4995660;28;20423;-47
2023/09/10 13:03:25;;;;;;;239.70;164.50;;;;;;;;;;4995022;28;20426;-47
2023/09/10 13:05:51;;;;;;;239.27;163.47;;;;;;;;;;4995127;28;20451;-46
2023/09/10 13:08:17;;;;;;;239.50;163.00;;;;;;;;;;4996768;28;20464;-46
2023/09/10 13:10:44;;;;;;;241.00;165.03;;;;;;;;;;5003356;28;20408;-46
2023/09/10 13:13:10;;;;;;;240.40;161.00;;;;;;;;;;5003135;28;20408;-46
2023/09/10 13:15:36;;;;;;;240.37;160.07;;;;;;;;;;5002847;28;20416;-46
2023/09/10 13:18:02;;;;;;;240.03;160.67;;;;;;;;;;5007837;28;20958;-47
2023/09/10 13:20:28;;;;;;;238.13;158.97;;;;;;;;;;5000934;28;20439;-47
2023/09/10 13:22:54;;;;;;;240.70;162.90;;;;;;;;;;5000275;28;20428;-46
2023/09/10 13:25:20;;;;;;;240.90;163.13;;;;;;;;;;5000916;28;20452;-46
2023/09/10 13:27:46;;;;;;;241.77;162.53;;;;;;;;;;5003573;28;20464;-46
2023/09/10 13:30:12;;;;;;;238.23;158.50;;;;;;;;;;5006297;28;20461;-46
2023/09/10 13:32:38;;;;;;;238.83;161.37;;;;;;;;;;5003204;28;20436;-47
2023/09/10 13:35:04;;;;;;;239.43;159.60;;;;;;;;;;4997142;28;20451;-46
2023/09/10 13:37:30;;;;;;;237.20;160.43;;;;;;;;;;4994366;28;20443;-46
2023/09/10 13:39:56;;;;;;;243.13;168.83;;;;;;;;;;4994480;28;20622;-47
2023/09/10 13:42:22;;;;;;;238.47;160.10;;;;;;;;;;4994474;28;20420;-46
2023/09/10 13:44:48;;;;;;;239.57;160.80;;;;;;;;;;4994351;28;20420;-46
2023/09/10 13:47:14;;;;;;;246.20;164.00;;;;;;;;;;4993937;28;20450;-46
2023/09/10 13:49:40;;;;;;;238.30;157.40;;;;;;;;;;4994476;28;20499;-46
2023/09/10 13:52:06;;;;;;;241.63;163.90;;;;;;;;;;4994393;28;20416;-46
2023/09/10 13:54:32;;;;;;;242.70;161.77;;;;;;;;;;4994202;28;20463;-46
2023/09/10 13:56:58;;;;;;;237.83;154.87;;;;;;;;;;4994151;28;20420;-46
2023/09/10 13:59:24;;;;;;;240.07;161.40;;;;;;;;;;4994064;28;20463;-46